Pickerel, Wisconsin
Current Conditions -  °F | °C
As of 3:55 PM on Saturday 20 Dec 2014 (Local Time) from KAIG Reporting Station
Overcast Overcast  
Wind Chill: 19°   Ceiling: 1900
Heat Index: 26°   Visibility: 7mi
Dew Point: 24°   Wind: 6mph
Humidity: 92%   Direction: 170°S
Pressure: 30.17"   Gusts: NA
Location:  45.36°N, 88.91°W
Report Text: KAIG 202155Z AUTO 17005KT 7SM OVC019 M03/M04 A3017 RMK AO2 T10331045
Loading
Personal Weather Stations






























Interactive Weather Map New forecast layout! Learn more

10-Day Weather Forecast

Advertisements
Track Severe Weather on mobile